createdAt,value
2019-05-30T00:00:18.150Z,91.12
2019-05-30T00:02:48.305Z,91.80
2019-05-30T00:05:18.361Z,90.74
2019-05-30T00:07:48.446Z,90.82
2019-05-30T00:10:18.529Z,89.69
2019-05-30T00:12:48.449Z,89.24
2019-05-30T00:15:18.363Z,89.56
2019-05-30T00:17:48.659Z,89.43
2019-05-30T00:20:18.518Z,88.44
2019-05-30T00:22:47.963Z,88.67
2019-05-30T00:25:18.474Z,88.57
2019-05-30T00:27:49.093Z,89.21
2019-05-30T00:30:24.481Z,88.86
2019-05-30T00:32:49.360Z,88.61
2019-05-30T00:35:18.710Z,88.55
2019-05-30T00:37:48.085Z,87.64
2019-05-30T00:40:18.540Z,87.60
2019-05-30T00:42:48.760Z,87.24
2019-05-30T00:45:21.175Z,86.81
2019-05-30T00:47:49.285Z,86.47
2019-05-30T00:50:19.247Z,85.94
2019-05-30T00:52:49.096Z,85.72
2019-05-30T00:55:19.323Z,85.58
2019-05-30T00:57:49.087Z,85.65
2019-05-30T01:00:19.029Z,84.03
2019-05-30T01:02:49.082Z,84.92
2019-05-30T01:05:19.248Z,84.58
2019-05-30T01:07:49.600Z,83.21
2019-05-30T01:10:19.479Z,83.42
2019-05-30T01:12:49.628Z,83.57
2019-05-30T01:15:19.600Z,84.09
2019-05-30T01:17:49.765Z,83.08
2019-05-30T01:20:19.857Z,83.34
2019-05-30T01:22:49.713Z,82.46
2019-05-30T01:25:19.319Z,82.07
2019-05-30T01:27:49.109Z,82.00
2019-05-30T01:30:18.845Z,81.52
2019-05-30T01:32:49.242Z,82.92
2019-05-30T01:35:19.255Z,83.34
2019-05-30T01:37:49.491Z,81.63
2019-05-30T01:40:19.158Z,81.10
2019-05-30T01:42:50.202Z,81.34
2019-05-30T01:45:20.439Z,81.98
2019-05-30T01:47:50.233Z,79.97
2019-05-30T01:50:19.968Z,80.36
2019-05-30T01:52:50.217Z,80.80
2019-05-30T01:55:20.604Z,79.58
2019-05-30T01:57:51.047Z,80.10
2019-05-30T02:00:21.698Z,79.19
2019-05-30T02:02:51.167Z,80.22
2019-05-30T02:05:21.239Z,77.82
2019-05-30T02:07:50.695Z,77.90
2019-05-30T02:10:20.773Z,79.00
2019-05-30T02:20:57.558Z,75.78
2019-05-30T02:23:27.123Z,75.96
2019-05-30T02:25:56.950Z,75.86
2019-05-30T02:28:27.187Z,76.52
2019-05-30T02:30:57.576Z,76.57
2019-05-30T02:33:27.629Z,74.48
2019-05-30T02:35:57.475Z,74.60
2019-05-30T02:38:27.178Z,74.77
2019-05-30T02:40:56.707Z,74.48
2019-05-30T02:43:26.457Z,74.84
2019-05-30T02:45:56.427Z,74.25
2019-05-30T02:48:25.888Z,73.32
2019-05-30T02:50:56.107Z,73.42
2019-05-30T02:53:26.004Z,73.11
2019-05-30T02:55:55.569Z,72.94
2019-05-30T02:58:25.833Z,72.53
2019-05-30T03:00:55.964Z,72.43
2019-05-30T03:03:25.738Z,72.88
2019-05-30T03:05:55.641Z,72.01
2019-05-30T03:08:25.598Z,70.92
2019-05-30T03:10:55.102Z,71.38
2019-05-30T05:36:42.535Z,66.62
2019-05-30T05:39:12.607Z,65.60
2019-05-30T05:41:42.996Z,67.36
2019-05-30T05:44:13.036Z,67.93
2019-05-30T05:46:42.917Z,67.66
2019-05-30T05:49:12.610Z,65.65
2019-05-30T05:51:43.093Z,65.64
2019-05-30T05:54:13.077Z,64.70
2019-05-30T05:56:42.949Z,66.05
2019-05-30T05:59:13.018Z,65.98
2019-05-30T06:01:43.343Z,65.50
2019-05-30T06:04:13.794Z,66.00
2019-05-30T06:06:43.500Z,66.49
2019-05-30T06:09:13.571Z,64.58
2019-05-30T06:11:43.963Z,64.81
2019-05-30T06:14:13.467Z,63.38
2019-05-30T06:16:43.490Z,64.27
2019-05-30T06:19:13.780Z,64.97
2019-05-30T06:21:53.671Z,64.97
2019-05-30T06:24:15.330Z,64.71
2019-05-30T06:26:45.232Z,65.39
2019-05-30T06:29:14.849Z,64.55
2019-05-30T06:31:44.957Z,64.23
2019-05-30T06:34:28.376Z,63.40
2019-05-30T06:36:45.827Z,63.20
2019-05-30T06:39:16.026Z,62.54
2019-05-30T06:41:46.258Z,64.15
2019-05-30T06:44:15.435Z,62.69
2019-05-30T06:46:44.938Z,63.48
2019-05-30T06:49:14.640Z,63.36
2019-05-30T06:51:44.278Z,62.42
2019-05-30T06:54:14.069Z,62.91
2019-05-30T06:56:44.781Z,63.65
2019-05-30T06:59:13.824Z,62.97
2019-05-30T07:01:43.570Z,62.69
2019-05-30T07:06:49.058Z,61.44
2019-05-30T07:09:18.428Z,61.81
2019-05-30T07:11:47.723Z,63.98
2019-05-30T07:14:17.621Z,63.44
2019-05-30T07:16:46.752Z,62.68
2019-05-30T07:19:16.054Z,63.46
2019-05-30T07:21:45.431Z,63.97
2019-05-30T07:26:50.906Z,62.87
2019-05-30T07:29:20.604Z,61.42
2019-05-30T07:31:49.919Z,62.17
2019-05-30T07:34:19.828Z,62.19
2019-05-30T07:36:49.771Z,61.92
2019-05-30T07:39:19.006Z,61.97
2019-05-30T07:42:03.002Z,62.81
2019-05-30T07:44:18.872Z,62.89
2019-05-30T07:46:48.379Z,62.38
2019-05-30T07:49:18.122Z,62.32
2019-05-30T07:51:47.538Z,62.16
2019-05-30T07:54:16.884Z,62.20
2019-05-30T07:56:46.618Z,62.15
2019-05-30T07:59:16.859Z,62.51
2019-05-30T08:01:46.013Z,63.00
2019-05-30T08:04:15.578Z,62.59
2019-05-30T08:06:45.421Z,62.04
2019-05-30T08:09:14.791Z,62.81
2019-05-30T08:11:44.235Z,61.76
2019-05-30T08:14:13.773Z,62.82
2019-05-30T08:16:43.290Z,62.41
2019-05-30T08:19:12.948Z,61.80
2019-05-30T08:21:42.637Z,62.32
2019-05-30T08:24:12.199Z,63.06
2019-05-30T08:26:41.842Z,61.99
2019-05-30T08:29:11.926Z,61.79
2019-05-30T08:31:43.041Z,62.50
2019-05-30T08:34:14.583Z,61.96
2019-05-30T08:36:44.065Z,63.55
2019-05-30T08:39:13.948Z,64.36
2019-05-30T08:41:43.820Z,63.31
2019-05-30T08:44:13.501Z,64.38
2019-05-30T08:46:43.798Z,64.44
2019-05-30T08:49:14.098Z,63.40
2019-05-30T08:51:44.088Z,62.95
2019-05-30T08:54:14.114Z,63.19
2019-05-30T08:56:44.131Z,63.13
2019-05-30T08:59:13.629Z,64.50
2019-05-30T09:01:43.906Z,64.09
2019-05-30T09:04:13.299Z,64.99
2019-05-30T09:06:44.066Z,64.42
2019-05-30T09:09:12.911Z,63.50
2019-05-30T09:11:42.416Z,62.89
2019-05-30T09:14:11.680Z,63.17
2019-05-30T09:16:40.977Z,63.98
2019-05-30T09:19:10.336Z,63.97
2019-05-30T09:21:41.348Z,64.84
2019-05-30T09:24:10.093Z,64.75
2019-05-30T09:26:43.783Z,64.31
2019-05-30T09:29:09.582Z,63.73
2019-05-30T09:31:39.871Z,64.69
2019-05-30T09:34:11.990Z,65.24
2019-05-30T09:36:42.662Z,65.92
2019-05-30T09:39:11.226Z,65.58
2019-05-30T09:41:42.196Z,66.21
2019-05-30T09:44:11.676Z,65.74
2019-05-30T09:46:42.565Z,65.04
2019-05-30T09:49:12.307Z,65.88
2019-05-30T09:51:42.478Z,66.14
2019-05-30T09:54:12.000Z,66.23
2019-05-30T09:56:42.045Z,66.45
2019-05-30T09:59:11.149Z,66.86
2019-05-30T10:01:42.635Z,67.17
2019-05-30T10:04:11.264Z,66.52
2019-05-30T10:06:40.490Z,67.01
2019-05-30T10:09:09.752Z,67.24
2019-05-30T10:11:39.477Z,67.27
2019-05-30T10:14:09.307Z,67.74
2019-05-30T10:16:39.006Z,67.52
2019-05-30T10:19:08.807Z,66.26
2019-05-30T10:21:38.449Z,66.93
2019-05-30T10:24:08.341Z,67.77
2019-05-30T10:26:37.906Z,67.81
2019-05-30T10:29:07.630Z,67.87
2019-05-30T10:31:36.977Z,67.56
2019-05-30T10:34:06.536Z,67.30
2019-05-30T10:36:44.138Z,67.84
2019-05-30T10:39:06.659Z,67.25
2019-05-30T10:41:36.397Z,67.47
2019-05-30T10:44:06.433Z,68.00
2019-05-30T10:46:35.964Z,67.32
2019-05-30T10:49:05.963Z,67.03
2019-05-30T10:51:35.908Z,66.29
2019-05-30T10:54:05.588Z,66.57
2019-05-30T10:56:35.094Z,66.28
2019-05-30T10:59:04.916Z,65.90
2019-05-30T11:01:35.266Z,66.91
2019-05-30T11:04:05.563Z,66.82
2019-05-30T11:06:35.154Z,66.05
2019-05-30T11:09:05.265Z,66.87
2019-05-30T11:11:34.774Z,66.83
2019-05-30T11:14:04.514Z,66.36
2019-05-30T11:16:34.092Z,67.21
2019-05-30T11:19:07.325Z,67.70
2019-05-30T11:21:33.618Z,67.54
2019-05-30T11:24:03.286Z,68.20
2019-05-30T11:26:32.989Z,68.60
2019-05-30T11:29:03.203Z,67.82
2019-05-30T11:31:32.916Z,67.10
2019-05-30T11:34:02.843Z,67.32
2019-05-30T11:36:32.373Z,67.50
2019-05-30T11:39:03.114Z,68.39
2019-05-30T11:41:34.258Z,68.48
2019-05-30T11:44:04.133Z,68.79
2019-05-30T11:46:33.570Z,68.82
2019-05-30T11:49:02.970Z,69.43
2019-05-30T11:51:32.465Z,68.98
2019-05-30T11:54:02.249Z,69.41
2019-05-30T11:56:31.967Z,70.29
2019-05-30T11:59:01.681Z,70.08
2019-05-30T12:01:31.084Z,70.48
2019-05-30T12:04:00.925Z,70.48
2019-05-30T12:06:30.695Z,71.40
2019-05-30T12:09:01.173Z,71.08
2019-05-30T12:11:29.988Z,70.61
2019-05-30T12:13:59.958Z,71.43
2019-05-30T12:16:29.841Z,70.90
2019-05-30T12:18:59.741Z,71.24
2019-05-30T12:21:30.609Z,71.09
2019-05-30T12:24:02.387Z,71.57
2019-05-30T12:26:33.810Z,72.04
2019-05-30T12:29:02.304Z,72.38
2019-05-30T12:31:31.985Z,72.37
2019-05-30T12:34:03.802Z,72.58
2019-05-30T12:36:33.689Z,72.58
2019-05-30T12:39:03.401Z,72.92
2019-05-30T12:41:35.245Z,73.05
2019-05-30T12:44:05.400Z,73.73
2019-05-30T12:46:35.358Z,74.14
2019-05-30T12:49:04.918Z,73.59
2019-05-30T12:51:34.392Z,74.57
2019-05-30T12:54:04.761Z,74.16
2019-05-30T12:56:35.272Z,74.54
2019-05-30T12:59:05.109Z,74.50
2019-05-30T13:01:35.325Z,75.06
2019-05-30T13:04:07.259Z,74.96
2019-05-30T13:06:37.405Z,75.23
2019-05-30T13:09:07.429Z,75.09
2019-05-30T13:11:36.939Z,75.44
2019-05-30T13:14:06.917Z,75.56
2019-05-30T13:16:36.981Z,75.40
2019-05-30T13:19:07.491Z,75.96
2019-05-30T13:21:37.571Z,76.30
2019-05-30T13:24:08.535Z,76.28
2019-05-30T13:26:38.652Z,76.45
2019-05-30T13:29:09.023Z,76.42
2019-05-30T13:31:39.254Z,77.18
2019-05-30T13:34:09.168Z,77.35
2019-05-30T13:36:39.661Z,77.74
2019-05-30T13:39:09.400Z,77.35
2019-05-30T13:41:39.264Z,78.21
2019-05-30T13:44:10.085Z,78.17
2019-05-30T13:46:40.602Z,78.77
2019-05-30T13:49:10.048Z,78.62
2019-05-30T13:51:39.465Z,77.97
2019-05-30T13:54:09.351Z,78.06
2019-05-30T13:56:38.658Z,79.17
2019-05-30T13:59:08.052Z,78.35
2019-05-30T14:01:38.084Z,78.93
2019-05-30T14:04:08.143Z,78.27
2019-05-30T14:06:37.729Z,78.76
2019-05-30T14:09:08.407Z,78.98
2019-05-30T14:11:38.175Z,79.28
2019-05-30T14:14:08.802Z,79.19
2019-05-30T14:16:37.523Z,79.32
2019-05-30T14:19:09.805Z,79.16
2019-05-30T14:21:36.535Z,78.97
2019-05-30T14:24:07.364Z,79.65
2019-05-30T14:26:36.630Z,79.75
2019-05-30T14:29:06.317Z,79.87
2019-05-30T14:31:36.665Z,79.96
2019-05-30T14:34:06.158Z,80.33
2019-05-30T14:36:35.500Z,80.87
2019-05-30T14:39:04.823Z,81.13
2019-05-30T14:41:34.446Z,80.73
2019-05-30T14:44:05.084Z,79.92
2019-05-30T14:46:33.716Z,80.25
2019-05-30T14:49:04.448Z,80.36
2019-05-30T14:51:35.436Z,80.70
2019-05-30T14:54:05.234Z,81.10
2019-05-30T14:56:34.925Z,80.84
2019-05-30T14:59:04.947Z,80.97
2019-05-30T15:01:34.925Z,80.11
2019-05-30T15:04:05.169Z,80.36
2019-05-30T15:06:37.119Z,81.21
2019-05-30T15:09:20.191Z,80.37
2019-05-30T15:11:36.058Z,81.04
2019-05-30T15:14:06.770Z,81.30
2019-05-30T15:16:37.200Z,81.40
2019-05-30T15:19:08.139Z,81.11
2019-05-30T15:21:37.829Z,82.08
2019-05-30T15:24:08.279Z,82.34
2019-05-30T15:26:38.047Z,81.93
2019-05-30T15:29:10.063Z,82.78
2019-05-30T15:31:41.520Z,82.65
2019-05-30T15:34:12.683Z,83.04
2019-05-30T15:36:42.969Z,82.99
2019-05-30T15:39:13.005Z,83.08
2019-05-30T15:41:43.002Z,82.78
2019-05-30T15:44:13.638Z,82.64
2019-05-30T15:46:48.721Z,82.92
2019-05-30T15:49:19.107Z,83.07
2019-05-30T15:51:49.729Z,82.53
2019-05-30T15:54:21.919Z,83.50
2019-05-30T15:56:51.910Z,82.75
2019-05-30T15:59:21.563Z,82.86
2019-05-30T16:04:25.279Z,82.63
2019-05-30T16:06:55.610Z,83.65
2019-05-30T16:09:25.518Z,82.91
2019-05-30T16:11:55.855Z,83.67
2019-05-30T16:14:25.224Z,82.90
2019-05-30T16:16:57.240Z,83.92
2019-05-30T16:19:26.756Z,82.88
2019-05-30T16:21:57.160Z,83.19
2019-05-30T16:24:27.488Z,83.60
2019-05-30T16:26:58.220Z,82.91
2019-05-30T16:29:28.627Z,83.53
2019-05-30T16:31:59.968Z,82.72
2019-05-30T16:34:32.686Z,83.44
2019-05-30T16:37:00.948Z,83.86
2019-05-30T16:39:30.706Z,83.75
2019-05-30T16:42:00.489Z,82.64
2019-05-30T16:44:30.712Z,83.46
2019-05-30T16:47:02.113Z,82.85
2019-05-30T16:49:32.618Z,82.83
2019-05-30T16:52:03.161Z,82.21
2019-05-30T16:54:34.031Z,81.85
2019-05-30T16:57:03.645Z,82.46
2019-05-30T16:59:34.065Z,81.97
2019-05-30T17:02:03.446Z,82.43
2019-05-30T17:04:34.972Z,82.61
2019-05-30T17:07:04.711Z,83.17
2019-05-30T17:09:35.323Z,83.25
2019-05-30T17:12:05.084Z,83.68
2019-05-30T17:14:35.213Z,83.84
2019-05-30T17:17:04.974Z,83.39
2019-05-30T17:19:38.608Z,84.20
2019-05-30T17:22:06.119Z,84.32
2019-05-30T17:24:36.814Z,83.21
2019-05-30T17:27:07.487Z,83.03
2019-05-30T17:29:37.581Z,83.79
2019-05-30T17:32:08.282Z,83.57
2019-05-30T17:34:38.760Z,83.21
2019-05-30T17:37:09.175Z,83.34
2019-05-30T17:39:39.090Z,83.92
2019-05-30T17:42:09.900Z,83.90
2019-05-30T17:44:40.268Z,84.07
2019-05-30T17:47:10.087Z,84.91
2019-05-30T17:49:40.508Z,84.73
2019-05-30T17:52:11.069Z,85.23
2019-05-30T17:54:43.252Z,85.62
2019-05-30T17:57:11.127Z,85.27
2019-05-30T17:59:40.622Z,85.41
2019-05-30T18:02:11.026Z,85.67
2019-05-30T18:04:41.497Z,85.25
2019-05-30T18:07:11.018Z,85.15
2019-05-30T18:09:40.816Z,85.52
2019-05-30T18:12:10.748Z,85.84
2019-05-30T18:14:41.478Z,86.00
2019-05-30T18:17:11.328Z,85.45
2019-05-30T18:19:41.424Z,85.81
2019-05-30T18:22:11.477Z,85.37
2019-05-30T18:24:41.418Z,85.56
2019-05-30T18:27:12.522Z,85.79
2019-05-30T18:29:43.004Z,85.68
2019-05-30T18:32:12.775Z,86.08
2019-05-30T18:34:42.577Z,85.92
2019-05-30T18:37:12.280Z,85.66
2019-05-30T18:39:42.532Z,85.57
2019-05-30T18:42:12.450Z,86.11
2019-05-30T18:44:42.362Z,85.48
2019-05-30T18:47:12.290Z,85.51
2019-05-30T18:49:42.592Z,85.10
2019-05-30T18:52:12.327Z,86.13
2019-05-30T18:54:42.126Z,85.72
2019-05-30T18:57:11.721Z,85.01
2019-05-30T18:59:41.787Z,85.81
2019-05-30T19:02:11.730Z,85.85
2019-05-30T19:04:41.888Z,85.63
2019-05-30T19:07:11.594Z,85.61
2019-05-30T19:09:41.633Z,85.50
2019-05-30T19:12:11.162Z,85.50
2019-05-30T19:14:40.970Z,85.81
2019-05-30T19:17:10.682Z,86.04
2019-05-30T19:19:40.560Z,86.19
2019-05-30T19:22:09.916Z,87.02
2019-05-30T19:24:39.638Z,87.56
2019-05-30T19:27:09.121Z,88.02
2019-05-30T19:29:38.738Z,88.16
2019-05-30T19:32:09.535Z,87.91
2019-05-30T19:34:39.393Z,88.04
2019-05-30T19:37:09.058Z,87.30
2019-05-30T19:39:38.805Z,87.01
2019-05-30T19:42:08.785Z,86.31
2019-05-30T19:44:41.408Z,87.26
2019-05-30T19:47:10.007Z,88.16
2019-05-30T19:49:39.766Z,88.37
2019-05-30T19:52:10.167Z,88.61
2019-05-30T19:54:41.236Z,88.71
2019-05-30T19:57:10.995Z,88.69
2019-05-30T19:59:40.985Z,88.04
2019-05-30T20:02:12.728Z,87.02
2019-05-30T20:04:42.302Z,86.69
2019-05-30T20:07:12.891Z,86.92
2019-05-30T20:09:42.612Z,85.87
2019-05-30T20:12:12.024Z,86.37
2019-05-30T20:14:41.488Z,87.36
2019-05-30T20:17:10.599Z,87.73
2019-05-30T20:19:40.067Z,87.68
2019-05-30T20:22:09.415Z,88.03
2019-05-30T20:24:39.088Z,88.07
2019-05-30T20:27:10.341Z,87.26
2019-05-30T20:29:43.652Z,86.17
2019-05-30T20:32:10.810Z,86.46
2019-05-30T20:34:42.984Z,86.76
2019-05-30T20:37:11.763Z,86.64
2019-05-30T20:39:42.888Z,86.56
2019-05-30T20:42:19.118Z,87.26
2019-05-30T20:44:43.129Z,87.72
2019-05-30T20:47:13.220Z,87.27
2019-05-30T20:49:43.391Z,86.79
2019-05-30T20:52:13.389Z,86.50
2019-05-30T20:54:43.573Z,85.60
2019-05-30T20:57:13.344Z,86.50
2019-05-30T20:59:43.336Z,86.85
2019-05-30T21:02:13.372Z,86.58
2019-05-30T21:04:43.453Z,86.47
2019-05-30T21:07:13.556Z,87.45
2019-05-30T21:09:44.295Z,87.31
2019-05-30T21:12:14.229Z,88.23
2019-05-30T21:14:43.771Z,87.72
2019-05-30T21:17:13.862Z,87.69
2019-05-30T21:19:44.257Z,87.24
2019-05-30T21:22:14.325Z,87.08
2019-05-30T21:24:44.794Z,87.02
2019-05-30T21:27:14.310Z,87.06
2019-05-30T21:29:45.776Z,87.69
2019-05-30T21:32:15.375Z,87.26
2019-05-30T21:34:46.386Z,87.87
2019-05-30T21:37:15.875Z,87.47
2019-05-30T21:39:46.703Z,87.41
2019-05-30T21:42:17.117Z,87.35
2019-05-30T21:44:50.665Z,87.35
2019-05-30T21:47:17.374Z,87.22
2019-05-30T21:49:47.454Z,87.01
2019-05-30T21:52:17.289Z,86.46
2019-05-30T21:54:47.825Z,86.15
2019-05-30T21:57:18.028Z,86.95
2019-05-30T21:59:48.926Z,86.14
2019-05-30T22:02:18.822Z,86.83
2019-05-30T22:04:48.781Z,86.23
2019-05-30T22:07:19.040Z,85.69
2019-05-30T22:09:49.381Z,86.22
2019-05-30T22:12:19.247Z,87.23
2019-05-30T22:14:49.847Z,87.88
2019-05-30T22:17:20.248Z,87.47
2019-05-30T22:19:50.331Z,87.06
2019-05-30T22:22:20.121Z,87.23
2019-05-30T22:24:50.338Z,87.33
2019-05-30T22:27:20.770Z,87.29
2019-05-30T22:29:50.692Z,87.58
2019-05-30T22:32:20.659Z,87.71
2019-05-30T22:34:50.951Z,87.09
2019-05-30T22:37:21.213Z,87.41
2019-05-30T22:39:52.965Z,87.36
2019-05-30T22:42:22.359Z,86.94
2019-05-30T22:44:52.430Z,86.79
2019-05-30T22:47:22.777Z,86.92
2019-05-30T22:49:52.980Z,87.35
2019-05-30T22:52:23.355Z,87.68
2019-05-30T22:54:53.510Z,87.74
2019-05-30T22:57:24.297Z,88.57
2019-05-30T22:59:55.254Z,88.88
2019-05-30T23:02:27.769Z,88.00
2019-05-30T23:04:57.935Z,88.22
2019-05-30T23:07:27.983Z,89.17
2019-05-30T23:09:57.688Z,88.36
2019-05-30T23:12:28.107Z,90.37
2019-05-30T23:14:57.589Z,90.71
2019-05-30T23:17:27.931Z,90.71
2019-05-30T23:19:58.009Z,90.45
2019-05-30T23:22:27.580Z,88.96
2019-05-30T23:24:57.609Z,89.31
2019-05-30T23:27:26.958Z,89.83
2019-05-30T23:29:58.001Z,91.27
2019-05-30T23:32:27.529Z,91.16
2019-05-30T23:34:58.573Z,91.51
2019-05-30T23:37:27.569Z,91.32
2019-05-30T23:39:57.373Z,90.57
2019-05-30T23:42:27.138Z,89.77
2019-05-30T23:44:57.532Z,89.19
2019-05-30T23:47:27.878Z,89.71
2019-05-30T23:49:58.191Z,89.50
2019-05-30T23:52:28.689Z,90.06
2019-05-30T23:54:58.388Z,90.32
2019-05-30T23:57:28.257Z,91.03
2019-05-30T23:59:58.817Z,90.54
